Terminal Aerodrome Forecast
Issued by NWS

Home | Current Version | Previous Version | Text Only | Print | Product List | Glossary Off
Versions: 1 2 3 4 5 6 7 8 9 10 11 12 13 14 15 16 17 18 19 20 21

000
FTUS43 KIWX 190900 AAA
TAFSBN
TAF AMD
KSBN 190938Z 1910/2006 20004KT 4SM BR SCT035
     FM191400 20012KT P6SM SCT040
      TEMPO 1919/1922 29020G40KT 3SM +TSRA OVC025CB
     FM200000 VRB03KT P6SM SCT040=

USA.gov is the U.S. government's official web portal to all federal, state and local government web resources and services.